Time;durP1;ratioP1;P1;durP2;ratioP2;P2;SDS_P1;SDS_P2;PMS_P1;PMS_P2;Temp;Humidity;BMP_temperature;BMP_pressure;BME280_temperature;BME280_humidity;BME280_pressure;Samples;Min_cycle;Max_cycle;Signal;HPM_P1;HPM_P2
2021/04/11 00:00:28;;;;;;;553.75;302.30;;;10.70;99.90;;;;;;5089130;28;20208;-78
2021/04/11 00:02:55;;;;;;;541.20;286.33;;;10.70;99.90;;;;;;5090445;28;20233;-78
2021/04/11 00:05:26;;;;;;;545.30;288.88;;;10.70;99.90;;;;;;5089829;28;20224;-78
2021/04/11 00:07:52;;;;;;;552.92;300.65;;;10.70;99.90;;;;;;5091516;28;20669;-79
2021/04/11 00:10:22;;;;;;;540.13;283.48;;;10.70;99.90;;;;;;5091253;28;20196;-79
2021/04/11 00:12:49;;;;;;;371.58;239.50;;;10.70;99.90;;;;;;5090899;28;20208;-78
2021/04/11 00:15:17;;;;;;;128.15;118.45;;;10.70;99.90;;;;;;5088733;28;20215;-78
2021/04/11 00:17:44;;;;;;;18.67;13.02;;;10.80;99.90;;;;;;5089305;28;20204;-78
2021/04/11 00:20:12;;;;;;;542.17;284.75;;;10.80;99.90;;;;;;5090005;28;20235;-78
2021/04/11 00:22:39;;;;;;;554.03;305.38;;;10.80;99.90;;;;;;5091282;28;20224;-78
2021/04/11 00:25:08;;;;;;;542.78;289.80;;;10.90;99.90;;;;;;5093786;28;20224;-78
2021/04/11 00:27:35;;;;;;;58.85;53.72;;;10.90;99.90;;;;;;5096413;28;20198;-78
2021/04/11 00:30:01;;;;;;;194.68;181.18;;;10.90;99.90;;;;;;5088975;28;20213;-78
2021/04/11 00:32:28;;;;;;;193.13;179.38;;;10.80;99.90;;;;;;5089035;28;20202;-78
2021/04/11 00:34:55;;;;;;;130.35;121.72;;;10.70;99.90;;;;;;5095051;28;20560;-78
2021/04/11 00:37:21;;;;;;;155.23;145.50;;;10.60;99.90;;;;;;5091068;28;20196;-78
2021/04/11 00:39:48;;;;;;;112.55;105.45;;;10.60;99.90;;;;;;5092825;28;20204;-78
2021/04/11 00:42:21;;;;;;;337.63;264.50;;;10.60;99.90;;;;;;5098526;28;20202;-78
2021/04/11 00:44:48;;;;;;;376.30;301.58;;;10.70;99.90;;;;;;5092313;28;20229;-78
2021/04/11 00:47:14;;;;;;;286.52;246.27;;;10.70;99.90;;;;;;5088310;28;20208;-78
2021/04/11 00:49:46;;;;;;;209.98;195.60;;;10.70;99.90;;;;;;5091764;28;20208;-78
2021/04/11 00:52:14;;;;;;;103.50;97.45;;;10.80;99.90;;;;;;5093595;28;20263;-78
2021/04/11 00:54:41;;;;;;;107.30;94.63;;;10.90;99.90;;;;;;5088108;28;20227;-78
2021/04/11 00:57:20;;;;;;;59.70;55.88;;;10.90;99.90;;;;;;5103992;28;20204;-79
2021/04/11 01:05:13;;;;;;;55.88;52.25;;;10.80;99.90;;;;;;5094415;28;20229;-78
2021/04/11 01:07:45;;;;;;;19.98;18.05;;;10.90;99.90;;;;;;5088836;28;20205;-78
2021/04/11 01:10:16;;;;;;;19.40;11.07;;;10.80;99.90;;;;;;5091369;28;20262;-78
2021/04/11 01:12:44;;;;;;;56.17;52.22;;;10.80;99.90;;;;;;5097805;28;20553;-78
2021/04/11 01:15:17;;;;;;;65.53;61.53;;;10.80;99.90;;;;;;5087354;28;20317;-78
2021/04/11 01:17:44;;;;;;;73.22;68.57;;;10.80;99.90;;;;;;5093336;28;20262;-77
2021/04/11 01:20:11;;;;;;;69.90;65.20;;;10.80;99.90;;;;;;5092295;28;20575;-77
2021/04/11 01:22:54;;;;;;;46.65;43.22;;;10.90;99.90;;;;;;5088446;28;20206;-78
2021/04/11 01:25:25;;;;;;;11.98;8.70;;;11.00;99.90;;;;;;5087848;28;20254;-78
2021/04/11 01:27:54;;;;;;;12.93;10.07;;;11.00;99.90;;;;;;5093783;28;20199;-78
2021/04/11 01:30:23;;;;;;;11.95;8.63;;;10.90;99.90;;;;;;5088682;28;20216;-78
2021/04/11 01:32:51;;;;;;;15.27;9.15;;;10.90;99.90;;;;;;5088438;28;20208;-78
2021/04/11 01:35:19;;;;;;;17.05;10.20;;;10.90;99.90;;;;;;5092444;28;20198;-77
2021/04/11 01:37:46;;;;;;;19.25;17.48;;;10.90;99.90;;;;;;5087906;28;20550;-77
2021/04/11 01:40:16;;;;;;;13.38;8.93;;;10.90;99.90;;;;;;5092248;28;20199;-78
2021/04/11 01:42:43;;;;;;;29.33;26.98;;;10.90;99.90;;;;;;5091858;28;20661;-77
2021/04/11 01:45:12;;;;;;;46.25;39.53;;;10.90;99.90;;;;;;5091677;28;20235;-77
2021/04/11 01:47:39;;;;;;;49.72;46.17;;;11.00;99.90;;;;;;5089772;28;20200;-77
2021/04/11 01:50:08;;;;;;;32.10;29.20;;;11.00;99.90;;;;;;5086310;28;20207;-77
2021/04/11 01:52:36;;;;;;;13.85;9.30;;;11.00;99.90;;;;;;5085539;28;20216;-77
2021/04/11 01:55:04;;;;;;;14.98;11.30;;;11.10;99.90;;;;;;5092621;28;20200;-77
2021/04/11 01:57:33;;;;;;;21.58;15.65;;;11.00;99.90;;;;;;5087217;28;20219;-78
2021/04/11 02:00:10;;;;;;;26.73;17.45;;;11.00;99.90;;;;;;5092742;28;20207;-78
2021/04/11 02:02:37;;;;;;;24.73;15.40;;;10.60;99.90;;;;;;5086453;28;20232;-78
2021/04/11 02:05:07;;;;;;;23.55;15.05;;;10.30;99.90;;;;;;5094464;28;20249;-78
2021/04/11 02:07:35;;;;;;;19.95;13.57;;;10.10;99.90;;;;;;5096614;28;20199;-79
2021/04/11 02:10:01;;;;;;;22.92;15.40;;;10.10;99.90;;;;;;5094937;28;20660;-78
2021/04/11 02:12:30;;;;;;;20.27;13.85;;;10.00;99.90;;;;;;5091608;28;20200;-78
2021/04/11 02:14:57;;;;;;;21.50;13.60;;;10.00;99.90;;;;;;5090277;28;20207;-78
2021/04/11 02:17:24;;;;;;;24.52;15.35;;;9.90;99.90;;;;;;5100351;28;20219;-78
2021/04/11 02:19:52;;;;;;;25.63;15.55;;;9.90;99.90;;;;;;5089432;28;20214;-78
2021/04/11 02:22:22;;;;;;;19.65;14.18;;;9.80;99.90;;;;;;5089709;28;20637;-78
2021/04/11 02:24:49;;;;;;;20.48;13.02;;;9.80;99.90;;;;;;5092399;28;20231;-78
2021/04/11 02:27:19;;;;;;;19.63;12.32;;;9.70;99.90;;;;;;5088252;28;20204;-78
2021/04/11 02:29:46;;;;;;;15.85;10.63;;;9.70;99.90;;;;;;5087946;28;20595;-78
2021/04/11 02:32:13;;;;;;;14.48;9.75;;;9.70;99.90;;;;;;5092430;28;20200;-78
2021/04/11 02:34:40;;;;;;;30.17;27.63;;;9.60;99.90;;;;;;5092133;28;20208;-77
2021/04/11 02:37:10;;;;;;;259.58;230.80;;;9.60;99.90;;;;;;5087165;28;20212;-78
2021/04/11 02:39:40;;;;;;;200.60;185.30;;;9.60;99.90;;;;;;5093129;28;20212;-77
2021/04/11 02:42:12;;;;;;;228.15;207.82;;;9.50;99.90;;;;;;5085101;28;20201;-77
2021/04/11 02:44:40;;;;;;;182.65;166.38;;;9.40;99.90;;;;;;5092660;28;20224;-77
2021/04/11 02:47:08;;;;;;;155.57;142.57;;;9.10;99.90;;;;;;5097092;28;20201;-77
2021/04/11 02:49:35;;;;;;;30.85;28.15;;;8.90;99.90;;;;;;5089102;28;20200;-77
2021/04/11 02:52:06;;;;;;;29.05;26.05;;;8.90;99.90;;;;;;5088823;28;20207;-77
2021/04/11 02:54:33;;;;;;;39.05;35.97;;;8.80;99.90;;;;;;5089709;28;20203;-77
2021/04/11 02:57:00;;;;;;;8.43;6.20;;;8.80;99.90;;;;;;5090168;28;20642;-77
2021/04/11 02:59:27;;;;;;;7.80;6.43;;;8.70;99.90;;;;;;5092119;28;20207;-77
2021/04/11 03:01:55;;;;;;;7.07;6.38;;;8.70;99.90;;;;;;5094605;28;21227;-77
2021/04/11 03:04:23;;;;;;;12.00;7.82;;;8.70;99.90;;;;;;5089681;28;20239;-77
2021/04/11 03:06:56;;;;;;;7.20;5.85;;;8.60;99.90;;;;;;5090628;28;20197;-77
2021/04/11 03:09:26;;;;;;;9.20;6.45;;;8.60;99.90;;;;;;5089620;28;20208;-78
2021/04/11 03:11:55;;;;;;;7.68;6.82;;;8.50;99.90;;;;;;5096649;28;20203;-78
2021/04/11 03:14:25;;;;;;;9.55;8.05;;;8.30;99.90;;;;;;5093974;28;20200;-77
2021/04/11 03:16:52;;;;;;;10.45;7.82;;;8.10;99.90;;;;;;5095750;28;20204;-78
2021/04/11 03:19:22;;;;;;;12.85;10.27;;;8.00;99.90;;;;;;5093071;28;20207;-77
2021/04/11 03:21:49;;;;;;;13.40;10.73;;;7.90;99.90;;;;;;5095015;28;20215;-77
2021/04/11 03:24:16;;;;;;;11.98;7.93;;;7.90;99.90;;;;;;5091443;28;20231;-77
2021/04/11 03:26:47;;;;;;;28.20;17.63;;;7.90;99.90;;;;;;5088809;28;20535;-77
2021/04/11 03:29:19;;;;;;;176.98;154.35;;;7.90;99.90;;;;;;5089365;28;20203;-77
2021/04/11 03:31:48;;;;;;;29.60;25.67;;;7.90;99.90;;;;;;5089444;28;20210;-77
2021/04/11 03:34:17;;;;;;;36.42;29.05;;;7.90;99.90;;;;;;5089187;28;20257;-78
2021/04/11 03:36:45;;;;;;;181.45;157.50;;;7.90;99.90;;;;;;5094838;28;20633;-78
2021/04/11 03:39:13;;;;;;;207.93;188.00;;;7.80;99.90;;;;;;5089114;28;20200;-78
2021/04/11 03:41:40;;;;;;;171.57;153.35;;;7.60;99.90;;;;;;5096344;28;20229;-77
2021/04/11 03:44:11;;;;;;;193.18;175.02;;;7.60;99.90;;;;;;5089631;28;20201;-77
2021/04/11 03:46:42;;;;;;;91.00;84.18;;;7.50;99.90;;;;;;5090795;28;20216;-77
2021/04/11 03:49:18;;;;;;;75.93;69.82;;;7.40;99.90;;;;;;5095105;28;20204;-78
2021/04/11 03:51:49;;;;;;;166.98;142.30;;;7.30;99.90;;;;;;5090197;28;20205;-77
2021/04/11 03:54:18;;;;;;;180.52;145.75;;;7.20;99.90;;;;;;5089937;28;20204;-77
2021/04/11 03:56:49;;;;;;;68.03;63.28;;;7.20;99.90;;;;;;5089895;28;20623;-77
2021/04/11 03:59:21;;;;;;;67.18;63.05;;;7.20;99.90;;;;;;5097947;28;20205;-78
2021/04/11 04:01:51;;;;;;;7.43;5.07;;;7.20;99.90;;;;;;5097450;28;20191;-77
2021/04/11 04:04:23;;;;;;;34.15;32.17;;;7.20;99.90;;;;;;5090291;28;20689;-78
2021/04/11 04:07:08;;;;;;;18.13;17.02;;;7.20;99.90;;;;;;5094774;28;20208;-77
2021/04/11 04:09:34;;;;;;;21.27;19.88;;;7.10;99.90;;;;;;5087992;28;20269;-78
2021/04/11 04:12:19;;;;;;;14.05;13.15;;;7.00;99.90;;;;;;5086998;28;20200;-77
2021/04/11 04:15:04;;;;;;;44.85;42.20;;;7.00;99.90;;;;;;5087669;28;20231;-77
2021/04/11 04:17:41;;;;;;;33.83;31.88;;;6.90;99.90;;;;;;5093109;28;20208;-77
2021/04/11 04:20:15;;;;;;;13.27;12.38;;;6.80;99.90;;;;;;5092489;28;20200;-77
2021/04/11 04:22:56;;;;;;;11.05;10.25;;;6.70;99.90;;;;;;5098105;28;20203;-77
2021/04/11 04:25:35;;;;;;;10.25;9.32;;;6.60;99.90;;;;;;5095861;28;20225;-77
2021/04/11 04:28:13;;;;;;;14.07;13.18;;;6.50;99.90;;;;;;5087800;28;20200;-77
2021/04/11 04:30:51;;;;;;;13.40;12.38;;;6.50;99.90;;;;;;5088036;28;20238;-77
2021/04/11 04:33:25;;;;;;;14.68;13.77;;;6.60;99.90;;;;;;5098841;28;20215;-77
2021/04/11 04:35:58;;;;;;;30.52;28.70;;;6.60;99.90;;;;;;5093089;28;20214;-77
2021/04/11 04:38:29;;;;;;;16.38;15.38;;;6.60;99.90;;;;;;5086860;28;20780;-77
2021/04/11 04:41:06;;;;;;;15.65;14.75;;;6.60;99.90;;;;;;5087479;28;20208;-77
2021/04/11 04:43:46;;;;;;;21.20;19.80;;;6.50;99.90;;;;;;5087000;28;20239;-77
2021/04/11 04:46:17;;;;;;;33.90;31.10;;;6.50;99.90;;;;;;5093466;28;20242;-77
2021/04/11 04:48:51;;;;;;;20.73;19.17;;;6.60;99.90;;;;;;5089541;28;20230;-77
2021/04/11 04:51:23;;;;;;;20.52;19.30;;;6.60;99.90;;;;;;5092342;28;20680;-77
2021/04/11 04:53:58;;;;;;;5.57;5.05;;;6.60;99.90;;;;;;5085486;28;20462;-77
2021/04/11 04:56:31;;;;;;;16.55;15.52;;;6.60;99.90;;;;;;5087316;28;20200;-76
2021/04/11 04:59:03;;;;;;;17.48;16.27;;;6.60;99.90;;;;;;5091006;28;20204;-77
2021/04/11 05:01:36;;;;;;;21.35;20.05;;;6.70;99.90;;;;;;5095944;28;20285;-77
2021/04/11 05:04:10;;;;;;;20.70;19.35;;;6.70;99.90;;;;;;5098754;28;20255;-78
2021/04/11 05:06:40;;;;;;;27.27;25.48;;;6.60;99.90;;;;;;5105933;28;20200;-78
2021/04/11 05:09:13;;;;;;;30.40;27.85;;;6.70;99.90;;;;;;5088364;28;20192;-78
2021/04/11 05:11:43;;;;;;;25.00;23.08;;;6.60;99.90;;;;;;5096179;28;20218;-78
2021/04/11 05:14:13;;;;;;;24.58;22.67;;;6.60;99.90;;;;;;5090686;28;20204;-78
2021/04/11 05:16:45;;;;;;;26.52;24.27;;;6.60;99.90;;;;;;5089622;28;20221;-78
2021/04/11 05:19:17;;;;;;;37.40;34.75;;;6.50;99.90;;;;;;5095299;28;20196;-78
2021/04/11 05:21:46;;;;;;;54.33;50.67;;;6.50;99.90;;;;;;5089683;28;20212;-78
2021/04/11 05:24:17;;;;;;;36.97;33.40;;;6.50;99.90;;;;;;5095948;28;20226;-78
2021/04/11 05:26:47;;;;;;;36.50;33.97;;;6.50;99.90;;;;;;5088830;28;20197;-78
2021/04/11 05:29:18;;;;;;;39.88;37.05;;;6.50;99.90;;;;;;5093239;28;20222;-78
2021/04/11 05:31:46;;;;;;;34.40;31.85;;;6.40;99.90;;;;;;5091077;28;20203;-77
2021/04/11 05:34:16;;;;;;;38.47;35.63;;;6.40;99.90;;;;;;5091894;28;20200;-78
2021/04/11 05:36:53;;;;;;;38.63;35.55;;;6.50;99.90;;;;;;5093282;28;20262;-78
2021/04/11 05:39:27;;;;;;;38.33;34.95;;;6.60;99.90;;;;;;5094428;28;20412;-77
2021/04/11 05:42:02;;;;;;;39.63;36.03;;;6.60;99.90;;;;;;5099389;28;20192;-78
2021/04/11 05:44:37;;;;;;;42.22;37.67;;;6.60;99.90;;;;;;5093661;28;20219;-78
2021/04/11 05:47:12;;;;;;;33.40;30.45;;;6.60;99.90;;;;;;5092629;28;20211;-78
2021/04/11 05:49:45;;;;;;;31.42;28.63;;;6.60;99.90;;;;;;5092038;28;20211;-76
2021/04/11 05:52:15;;;;;;;34.05;31.33;;;6.60;99.90;;;;;;5086368;28;20205;-76
2021/04/11 05:54:46;;;;;;;48.25;44.88;;;6.60;99.90;;;;;;5086147;28;20208;-77
2021/04/11 05:57:19;;;;;;;45.13;41.70;;;6.50;99.90;;;;;;5092045;28;20200;-76
2021/04/11 05:59:52;;;;;;;43.25;39.90;;;6.30;99.90;;;;;;5085591;28;20227;-77
2021/04/11 06:02:27;;;;;;;51.25;47.38;;;6.30;99.90;;;;;;5086626;28;20204;-76
2021/04/11 06:05:00;;;;;;;51.85;47.88;;;6.20;99.90;;;;;;5088419;28;20207;-76
2021/04/11 06:07:36;;;;;;;45.13;41.58;;;6.10;99.90;;;;;;5091884;28;20211;-76
2021/04/11 06:10:08;;;;;;;43.65;40.08;;;6.10;99.90;;;;;;5092939;28;20207;-76
2021/04/11 06:12:40;;;;;;;43.70;40.15;;;6.10;99.90;;;;;;5093068;28;20226;-76
2021/04/11 06:15:12;;;;;;;36.17;33.50;;;6.10;99.90;;;;;;5090710;28;20204;-77
2021/04/11 06:17:42;;;;;;;43.40;39.92;;;6.20;99.90;;;;;;5091308;28;20208;-77
2021/04/11 06:20:10;;;;;;;49.13;45.72;;;6.10;99.90;;;;;;5098566;28;20191;-76
2021/04/11 06:22:42;;;;;;;38.70;35.38;;;6.10;99.90;;;;;;5097795;28;20200;-76
2021/04/11 06:25:14;;;;;;;27.15;24.42;;;6.10;99.90;;;;;;5094405;28;20223;-76
2021/04/11 06:27:52;;;;;;;18.08;15.88;;;6.10;99.90;;;;;;5091094;28;20196;-76
2021/04/11 06:30:23;;;;;;;16.00;10.43;;;6.10;99.90;;;;;;5093531;28;20577;-76
2021/04/11 06:32:56;;;;;;;20.85;18.42;;;6.10;99.90;;;;;;5096559;28;20204;-76
2021/04/11 06:35:27;;;;;;;16.05;14.52;;;6.10;99.90;;;;;;5088852;28;20250;-76
2021/04/11 06:37:57;;;;;;;20.00;16.15;;;6.20;99.90;;;;;;5093395;28;20200;-76
2021/04/11 06:40:39;;;;;;;17.67;15.70;;;6.20;99.90;;;;;;5089432;28;20200;-76
2021/04/11 06:43:31;;;;;;;14.77;10.77;;;6.20;99.90;;;;;;5094456;28;20357;-78
2021/04/11 06:46:03;;;;;;;314.63;104.78;;;6.20;99.90;;;;;;5101511;28;20235;-76
2021/04/11 06:49:01;;;;;;;31.30;28.75;;;6.20;99.90;;;;;;5096097;28;20204;-76
2021/04/11 06:51:53;;;;;;;17.50;13.68;;;6.20;99.90;;;;;;5036857;28;20593;-76
2021/04/11 06:54:51;;;;;;;15.45;13.85;;;6.30;99.90;;;;;;5032531;28;20308;-76
2021/04/11 06:57:33;;;;;;;12.32;9.73;;;6.30;99.90;;;;;;5029097;28;20198;-77
2021/04/11 07:00:10;;;;;;;14.18;12.90;;;6.30;99.90;;;;;;5031098;28;20207;-76
2021/04/11 07:03:17;;;;;;;14.65;13.25;;;6.40;99.90;;;;;;5033369;28;20590;-76
2021/04/11 07:06:28;;;;;;;8.65;7.18;;;6.40;99.90;;;;;;5031878;28;20241;-76
2021/04/11 07:09:12;;;;;;;7.32;6.63;;;6.30;99.90;;;;;;4941197;28;20211;-76
2021/04/11 07:12:13;;;;;;;8.35;6.57;;;6.30;99.90;;;;;;4979016;28;20940;-76
2021/04/11 07:15:18;;;;;;;9.23;7.03;;;6.30;99.90;;;;;;4984992;28;20219;-76
2021/04/11 07:18:22;;;;;;;12.27;6.95;;;6.30;99.90;;;;;;4970652;28;20205;-76
2021/04/11 07:21:25;;;;;;;7.75;6.95;;;6.40;99.90;;;;;;4980587;28;20211;-76
2021/04/11 07:24:31;;;;;;;13.07;8.80;;;6.50;99.90;;;;;;4978699;28;20239;-76
2021/04/11 07:27:06;;;;;;;12.23;9.32;;;6.50;99.90;;;;;;5008240;28;20197;-76
2021/04/11 07:29:59;;;;;;;14.52;7.00;;;6.50;99.90;;;;;;5042145;28;20324;-76
2021/04/11 07:32:45;;;;;;;8.77;6.65;;;6.40;99.90;;;;;;5034548;28;20206;-76
2021/04/11 07:35:22;;;;;;;9.07;7.13;;;6.50;99.90;;;;;;5004570;28;20210;-76
2021/04/11 07:38:14;;;;;;;10.88;6.88;;;6.60;99.90;;;;;;5043176;28;20201;-76
2021/04/11 07:41:20;;;;;;;13.82;8.55;;;6.60;99.90;;;;;;5030511;28;20206;-76
2021/04/11 07:44:05;;;;;;;13.68;9.77;;;6.50;99.90;;;;;;5082319;28;20205;-76
2021/04/11 07:47:00;;;;;;;17.30;11.85;;;6.50;99.90;;;;;;5088313;28;20232;-76
2021/04/11 07:49:49;;;;;;;18.10;11.18;;;6.50;99.90;;;;;;5091575;28;20210;-76
2021/04/11 07:52:32;;;;;;;15.13;9.60;;;6.40;99.90;;;;;;5090768;28;20218;-75
2021/04/11 07:55:18;;;;;;;12.52;8.52;;;6.40;99.90;;;;;;5097934;28;20204;-76
2021/04/11 07:58:04;;;;;;;10.43;7.07;;;6.50;99.90;;;;;;5092789;28;20199;-76
2021/04/11 08:00:53;;;;;;;8.10;6.65;;;6.50;99.90;;;;;;5087803;28;20204;-77
2021/04/11 08:03:26;;;;;;;10.05;7.40;;;6.50;99.90;;;;;;5091504;28;20232;-76
2021/04/11 08:06:26;;;;;;;9.63;6.53;;;6.50;99.90;;;;;;5104929;28;20228;-75
2021/04/11 08:09:15;;;;;;;9.48;6.35;;;6.60;99.90;;;;;;5086754;28;20200;-76
2021/04/11 08:12:16;;;;;;;7.20;5.82;;;6.50;99.90;;;;;;5083430;28;20214;-76
2021/04/11 08:21:27;;;;;;;14.23;9.00;;;6.60;99.90;;;;;;5109062;28;20236;-77
2021/04/11 08:24:19;;;;;;;11.15;6.65;;;6.60;99.90;;;;;;5104612;28;20199;-77
2021/04/11 08:27:21;;;;;;;7.13;6.20;;;6.50;99.90;;;;;;5108755;28;20261;-77
2021/04/11 08:30:22;;;;;;;11.73;6.82;;;6.50;99.90;;;;;;5083660;28;20203;-77
2021/04/11 08:36:36;;;;;;;6.82;5.50;;;6.50;99.90;;;;;;5102798;28;20299;-77
2021/04/11 08:39:19;;;;;;;6.35;4.80;;;6.50;99.90;;;;;;5107534;28;20286;-77
2021/04/11 08:42:00;;;;;;;6.22;5.20;;;6.50;99.90;;;;;;5109101;28;20668;-77
2021/04/11 08:47:37;;;;;;;4.97;4.57;;;6.40;99.90;;;;;;5102516;28;20217;-77
2021/04/11 08:50:08;;;;;;;5.20;4.32;;;6.40;99.90;;;;;;5104069;28;20202;-77
2021/04/11 08:52:44;;;;;;;5.45;4.95;;;6.40;99.90;;;;;;5106527;28;20207;-77
2021/04/11 08:55:22;;;;;;;5.50;5.07;;;6.30;99.90;;;;;;5105429;28;20204;-77
2021/04/11 08:58:08;;;;;;;8.90;5.25;;;6.40;99.90;;;;;;5111301;28;20231;-77
2021/04/11 09:00:41;;;;;;;5.50;4.57;;;6.50;99.90;;;;;;5102960;28;20211;-76
2021/04/11 09:03:43;;;;;;;8.55;5.75;;;6.50;99.90;;;;;;5103173;28;20192;-81
2021/04/11 09:06:19;;;;;;;6.97;6.28;;;6.50;99.90;;;;;;5109544;28;20210;-76
2021/04/11 09:09:01;;;;;;;12.48;9.75;;;6.50;99.90;;;;;;5104517;28;20286;-77
2021/04/11 09:11:34;;;;;;;13.57;9.10;;;6.50;99.90;;;;;;5112208;28;20213;-76
2021/04/11 09:14:13;;;;;;;11.75;8.15;;;6.50;99.90;;;;;;5107548;28;20203;-76
2021/04/11 09:16:52;;;;;;;14.30;7.60;;;6.60;99.90;;;;;;5105262;28;20244;-76
2021/04/11 09:19:28;;;;;;;9.43;7.25;;;6.60;99.90;;;;;;5101309;28;20199;-76
2021/04/11 09:22:16;;;;;;;7.72;4.88;;;6.60;99.90;;;;;;5109064;28;20203;-76
2021/04/11 09:24:47;;;;;;;4.53;4.13;;;6.50;99.90;;;;;;5101505;28;20661;-76
2021/04/11 09:27:45;;;;;;;6.88;5.35;;;6.60;99.90;;;;;;5105868;28;20223;-77
2021/04/11 09:30:26;;;;;;;5.22;4.72;;;6.50;99.90;;;;;;5090183;28;20249;-75
2021/04/11 09:33:31;;;;;;;7.25;5.55;;;6.50;99.90;;;;;;5088453;28;20205;-75
2021/04/11 09:36:09;;;;;;;9.20;5.38;;;6.50;99.90;;;;;;5087700;28;20236;-76
2021/04/11 09:38:59;;;;;;;8.40;7.50;;;6.50;99.90;;;;;;5093321;28;20208;-75
2021/04/11 09:41:54;;;;;;;7.88;6.75;;;6.60;99.90;;;;;;5087443;28;20242;-76
2021/04/11 09:44:35;;;;;;;11.20;10.32;;;6.60;99.90;;;;;;5079871;28;20675;-76
2021/04/11 09:47:21;;;;;;;10.18;7.43;;;6.70;99.90;;;;;;5091062;28;20578;-76
2021/04/11 09:50:16;;;;;;;12.35;7.75;;;6.80;99.90;;;;;;5092638;28;20291;-76
2021/04/11 09:52:59;;;;;;;12.80;7.68;;;6.90;99.90;;;;;;5084070;28;20205;-75
2021/04/11 09:55:28;;;;;;;7.45;6.22;;;7.00;99.90;;;;;;5098743;28;20208;-75
2021/04/11 09:58:24;;;;;;;7.43;4.55;;;7.20;99.90;;;;;;5087559;28;20200;-75
2021/04/11 10:00:59;;;;;;;3.10;2.80;;;7.30;99.90;;;;;;5086268;28;20667;-75
2021/04/11 10:08:48;;;;;;;4.82;3.38;;;7.40;99.90;;;;;;5082475;28;20229;-76
2021/04/11 10:14:48;;;;;;;13.35;12.65;;;7.20;99.90;;;;;;5091803;28;20238;-75
2021/04/11 10:17:25;;;;;;;7.35;6.95;;;7.20;99.90;;;;;;5097900;28;20199;-75
2021/04/11 10:20:02;;;;;;;6.93;6.45;;;7.30;99.90;;;;;;5091747;28;20227;-75
2021/04/11 10:22:54;;;;;;;33.83;32.13;;;7.40;99.90;;;;;;5091796;28;20211;-75
2021/04/11 10:25:28;;;;;;;10.65;10.05;;;7.50;99.90;;;;;;5083181;28;20215;-75
2021/04/11 10:28:14;;;;;;;9.77;9.35;;;7.70;99.90;;;;;;5089482;28;20238;-76
2021/04/11 10:30:42;;;;;;;19.35;18.38;;;7.80;99.90;;;;;;5100704;28;20233;-76
2021/04/11 10:33:15;;;;;;;3.97;3.78;;;7.90;99.90;;;;;;5091370;28;20215;-76
2021/04/11 10:35:49;;;;;;;4.53;4.22;;;7.90;99.90;;;;;;5085556;28;20673;-76
2021/04/11 10:38:21;;;;;;;4.97;4.57;;;7.90;99.90;;;;;;5098106;28;20207;-76
2021/04/11 10:41:15;;;;;;;6.30;5.85;;;8.00;99.90;;;;;;5094839;28;20207;-76
2021/04/11 10:43:55;;;;;;;4.32;4.03;;;8.10;99.90;;;;;;5093725;28;20227;-77
2021/04/11 10:46:25;;;;;;;6.28;3.55;;;8.10;99.90;;;;;;5094483;28;20203;-77
2021/04/11 10:49:19;;;;;;;4.22;3.83;;;8.00;99.90;;;;;;5098783;28;20261;-76
2021/04/11 10:52:25;;;;;;;5.63;3.45;;;7.90;99.90;;;;;;5087457;28;20234;-76
2021/04/11 10:55:32;;;;;;;4.82;3.95;;;7.70;99.90;;;;;;5089564;28;20245;-76
2021/04/11 10:58:19;;;;;;;3.80;3.20;;;7.60;99.90;;;;;;5088747;28;20236;-76
2021/04/11 11:01:00;;;;;;;3.28;3.08;;;7.60;99.90;;;;;;5096736;28;20199;-76
2021/04/11 11:04:17;;;;;;;4.43;4.15;;;7.60;99.90;;;;;;5083182;28;20235;-76
2021/04/11 11:07:20;;;;;;;7.43;5.35;;;7.50;99.90;;;;;;5090344;28;20246;-77
2021/04/11 11:09:51;;;;;;;8.75;8.05;;;7.40;99.90;;;;;;5088329;28;20197;-76
2021/04/11 11:12:39;;;;;;;9.35;7.68;;;7.40;99.90;;;;;;5083455;28;20279;-76
2021/04/11 11:15:54;;;;;;;11.57;8.85;;;7.40;99.90;;;;;;5089618;28;20208;-76
2021/04/11 11:18:45;;;;;;;18.10;14.23;;;7.40;99.90;;;;;;5024197;28;20211;-76
2021/04/11 11:21:33;;;;;;;6.85;6.25;;;7.50;99.90;;;;;;5010711;28;20303;-77
2021/04/11 11:24:16;;;;;;;4.85;4.47;;;7.60;99.90;;;;;;5007394;28;20268;-76
2021/04/11 11:27:19;;;;;;;4.90;4.60;;;7.70;99.90;;;;;;5013082;28;20203;-76
2021/04/11 11:30:11;;;;;;;3.67;3.20;;;7.70;99.90;;;;;;5025931;28;20266;-76
2021/04/11 11:32:47;;;;;;;5.90;5.25;;;7.70;99.90;;;;;;5011746;28;20752;-76
2021/04/11 11:35:16;;;;;;;8.60;7.97;;;7.60;99.90;;;;;;5009637;28;20206;-77
2021/04/11 11:37:52;;;;;;;4.70;4.30;;;7.70;99.90;;;;;;5006914;28;20195;-76
2021/04/11 11:40:26;;;;;;;6.82;6.35;;;7.80;99.90;;;;;;5010259;28;20206;-76
2021/04/11 11:43:03;;;;;;;7.95;7.45;;;7.90;99.90;;;;;;5011423;28;20244;-76
2021/04/11 11:45:38;;;;;;;6.18;5.78;;;8.00;99.90;;;;;;5025320;28;20405;-77
2021/04/11 11:48:21;;;;;;;5.00;4.70;;;8.10;99.90;;;;;;5012697;28;20203;-77
2021/04/11 11:50:58;;;;;;;6.28;5.93;;;8.10;99.90;;;;;;5012916;28;20261;-76
2021/04/11 11:53:30;;;;;;;7.82;7.35;;;8.20;99.90;;;;;;5077865;28;20268;-77
2021/04/11 11:56:07;;;;;;;11.68;11.05;;;8.20;99.90;;;;;;5087717;28;20219;-77
2021/04/11 11:58:41;;;;;;;10.45;9.82;;;8.20;99.90;;;;;;5083378;28;20207;-77
2021/04/11 12:01:17;;;;;;;15.15;14.25;;;8.30;99.90;;;;;;5077634;28;20585;-77
2021/04/11 12:06:33;;;;;;;6.65;5.32;;;8.50;99.90;;;;;;5087673;28;20740;-77
2021/04/11 12:09:06;;;;;;;8.10;7.60;;;8.50;99.90;;;;;;5081986;28;20214;-76
2021/04/11 12:11:40;;;;;;;13.80;13.00;;;8.50;99.90;;;;;;5079918;28;20201;-77
2021/04/11 12:14:12;;;;;;;37.40;35.30;;;8.50;99.90;;;;;;5079166;28;20205;-77
2021/04/11 12:16:42;;;;;;;30.15;28.75;;;8.50;99.90;;;;;;5072564;28;20209;-76
2021/04/11 12:19:15;;;;;;;25.63;24.38;;;8.50;99.90;;;;;;5076337;28;20216;-76
2021/04/11 12:21:50;;;;;;;12.48;11.57;;;8.50;99.90;;;;;;5077157;28;20214;-76
2021/04/11 12:24:22;;;;;;;18.63;17.70;;;8.70;99.90;;;;;;5077135;28;20227;-77
2021/04/11 12:26:51;;;;;;;20.50;19.40;;;9.00;99.90;;;;;;5077764;28;20539;-76
2021/04/11 12:29:23;;;;;;;21.33;19.80;;;9.20;99.90;;;;;;5076024;28;20224;-76
2021/04/11 12:32:01;;;;;;;20.77;19.58;;;9.30;99.90;;;;;;5070661;28;20219;-78
2021/04/11 12:34:41;;;;;;;20.00;19.10;;;9.40;99.90;;;;;;5074153;28;20209;-78
2021/04/11 12:37:28;;;;;;;24.70;23.23;;;9.20;99.90;;;;;;5073392;28;20630;-78
2021/04/11 12:40:09;;;;;;;19.60;18.00;;;9.20;99.90;;;;;;5074465;28;20265;-77
2021/04/11 12:42:42;;;;;;;21.90;20.85;;;9.10;99.90;;;;;;5073544;28;20218;-77
2021/04/11 12:45:17;;;;;;;17.88;16.95;;;9.00;99.90;;;;;;5074487;28;20228;-77
2021/04/11 12:47:54;;;;;;;25.73;24.27;;;9.00;99.90;;;;;;5073281;28;20203;-77
2021/04/11 12:50:29;;;;;;;26.23;24.48;;;9.10;99.90;;;;;;5066576;28;20201;-77
2021/04/11 12:53:11;;;;;;;26.50;24.98;;;9.20;99.90;;;;;;5073253;28;20208;-77
2021/04/11 12:55:45;;;;;;;18.73;17.67;;;9.30;99.90;;;;;;5068966;28;20205;-77
2021/04/11 12:58:33;;;;;;;27.42;26.02;;;9.30;99.90;;;;;;5068114;28;20201;-76
2021/04/11 13:01:14;;;;;;;30.70;28.83;;;9.40;99.90;;;;;;5073590;28;20219;-77
2021/04/11 13:03:44;;;;;;;23.42;22.23;;;9.50;99.90;;;;;;5073883;28;20244;-77
2021/04/11 13:06:22;;;;;;;27.02;25.65;;;9.50;99.90;;;;;;5078379;28;20211;-77
2021/04/11 13:09:14;;;;;;;28.17;26.60;;;9.50;99.90;;;;;;5075206;28;20208;-77
2021/04/11 13:11:46;;;;;;;26.92;25.63;;;9.50;99.90;;;;;;5072267;28;20212;-78
2021/04/11 13:14:23;;;;;;;26.20;24.85;;;9.40;99.90;;;;;;5078226;28;20661;-77
2021/04/11 13:16:56;;;;;;;33.70;31.60;;;9.30;99.90;;;;;;5078733;28;20216;-77
2021/04/11 13:19:25;;;;;;;41.78;39.38;;;9.10;99.90;;;;;;5080306;28;20208;-77
2021/04/11 13:22:00;;;;;;;34.42;32.53;;;9.00;99.90;;;;;;5077015;28;20218;-77
2021/04/11 13:24:33;;;;;;;32.60;30.42;;;8.90;99.90;;;;;;5077445;28;20224;-76
2021/04/11 13:27:07;;;;;;;35.15;33.25;;;8.80;99.90;;;;;;5075448;28;20212;-77
2021/04/11 13:29:43;;;;;;;43.00;40.55;;;8.70;99.90;;;;;;5081034;28;20212;-77
2021/04/11 13:32:20;;;;;;;47.42;44.83;;;8.80;99.90;;;;;;5086446;28;20204;-77
2021/04/11 13:35:01;;;;;;;53.85;50.35;;;8.80;99.90;;;;;;5077857;28;20210;-77
2021/04/11 13:37:29;;;;;;;50.28;47.45;;;9.00;99.90;;;;;;5074995;28;20208;-77
2021/04/11 13:40:01;;;;;;;54.15;50.97;;;9.00;99.90;;;;;;5081987;28;20197;-78
2021/04/11 13:42:54;;;;;;;44.83;42.42;;;9.10;99.90;;;;;;5080577;28;20204;-76
2021/04/11 13:45:28;;;;;;;51.17;48.03;;;9.30;99.90;;;;;;5069097;28;20220;-76
2021/04/11 13:48:09;;;;;;;61.90;57.97;;;9.40;99.90;;;;;;5073391;28;20204;-76
2021/04/11 13:50:45;;;;;;;49.72;46.92;;;9.40;99.90;;;;;;5070878;28;20227;-76
2021/04/11 13:53:27;;;;;;;47.95;45.25;;;9.60;99.90;;;;;;5073987;28;20211;-77
2021/04/11 13:56:11;;;;;;;46.30;43.90;;;9.60;99.90;;;;;;5072435;28;20201;-76